Time;durP1;ratioP1;P1;durP2;ratioP2;P2;SDS_P1;SDS_P2;PMS_P1;PMS_P2;Temp;Humidity;BMP_temperature;BMP_pressure;BME280_temperature;BME280_humidity;BME280_pressure;Samples;Min_cycle;Max_cycle;Signal;HPM_P1;HPM_P2
2023/03/31 00:01:28;;;;;;;;;;;13.20;84.90;;;12.53;67.66;99491.31;5011030;28;19936;-82
2023/03/31 00:04:02;;;;;;;;;;;13.20;84.90;;;12.52;67.67;99489.72;5011189;28;19961;-84
2023/03/31 00:06:29;;;;;;;;;;;13.10;84.90;;;12.51;67.68;99485.44;5015973;28;20337;-81
2023/03/31 00:09:00;;;;;;;;;;;13.20;84.70;;;12.51;67.62;99478.22;5016384;28;19941;-81
2023/03/31 00:11:29;;;;;;;;;;;13.10;84.80;;;12.50;67.67;99476.59;5010817;28;19929;-81
2023/03/31 00:13:56;;;;;;;;;;;13.10;84.90;;;12.49;67.61;99464.28;5010829;28;20012;-83
2023/03/31 00:16:23;;;;;;;;;;;13.10;84.70;;;12.50;67.40;99465.09;5017110;28;19969;-81
2023/03/31 00:18:50;;;;;;;;;;;13.10;84.70;;;12.49;67.53;99452.75;5012356;28;19929;-84
2023/03/31 00:21:24;;;;;;;;;;;13.10;84.80;;;12.48;67.29;99446.59;5008549;28;20015;-82
2023/03/31 00:23:52;;;;;;;;;;;13.10;84.70;;;12.48;67.31;99451.16;5010440;28;20304;-83
2023/03/31 00:26:21;;;;;;;;;;;13.10;84.70;;;12.46;67.32;99440.72;5010317;28;20015;-82
2023/03/31 00:28:50;;;;;;;;;;;13.10;84.90;;;12.46;67.55;99447.94;5012483;28;19933;-82
2023/03/31 00:31:17;;;;;;;;;;;13.10;84.90;;;12.44;67.37;99431.31;5010275;28;19929;-83
2023/03/31 00:33:44;;;;;;;;;;;13.10;84.80;;;12.44;67.60;99425.97;5013169;28;20019;-81
2023/03/31 00:36:11;;;;;;;;;;;13.10;85.00;;;12.43;67.72;99416.31;5030365;28;19933;-81
2023/03/31 00:38:38;;;;;;;;;;;13.10;85.00;;;12.43;67.40;99422.47;5034024;28;19929;-81
2023/03/31 00:41:05;;;;;;;;;;;13.10;84.90;;;12.42;67.51;99412.03;5036199;28;19991;-82
2023/03/31 00:43:34;;;;;;;;;;;13.10;84.80;;;12.40;67.43;99414.16;5017555;28;19929;-82
2023/03/31 00:46:14;;;;;;;;;;;13.00;84.90;;;12.38;67.51;99404.50;4992673;28;19931;-83
2023/03/31 00:48:46;;;;;;;;;;;13.10;84.90;;;12.40;67.56;99398.13;5017415;28;19929;-80
2023/03/31 00:51:13;;;;;;;;;;;13.00;84.90;;;12.40;67.56;99390.09;4995935;28;20032;-83
2023/03/31 00:53:40;;;;;;;;;;;13.10;85.10;;;12.41;67.50;99394.38;5003015;28;20028;-81
2023/03/31 00:56:13;;;;;;;;;;;13.10;85.10;;;12.41;67.53;99391.72;5010450;28;19929;-86
2023/03/31 00:58:42;;;;;;;;;;;13.10;85.00;;;12.41;67.58;99379.16;5019174;28;19960;-81
2023/03/31 01:01:14;;;;;;;;;;;13.10;85.00;;;12.42;67.49;99377.28;5024020;28;19936;-80
2023/03/31 01:03:45;;;;;;;;;;;13.10;84.90;;;12.39;67.54;99370.56;5021298;28;20384;-84
2023/03/31 01:06:13;;;;;;;;;;;13.10;84.90;;;12.37;67.49;99362.78;5025363;28;19925;-82
2023/03/31 01:08:41;;;;;;;;;;;13.00;84.90;;;12.38;67.48;99355.56;5011571;28;20040;-83
2023/03/31 01:11:12;;;;;;;;;;;13.00;84.70;;;12.37;67.77;99353.97;5024141;28;20309;-81
2023/03/31 01:13:40;;;;;;;;;;;13.00;85.10;;;12.38;68.01;99352.91;5016620;28;19956;-81
2023/03/31 01:16:10;;;;;;;;;;;13.00;85.30;;;12.36;68.34;99341.66;5017913;28;20459;-85
2023/03/31 01:18:38;;;;;;;;;;;13.00;85.60;;;12.37;68.43;99337.91;5023995;28;19936;-84
2023/03/31 01:21:38;;;;;;;;;;;13.00;85.70;;;12.38;68.80;99318.94;5029535;28;19940;-82
2023/03/31 01:24:23;;;;;;;;;;;13.10;86.10;;;12.37;68.84;99320.00;5044928;28;20027;-82
2023/03/31 01:27:01;;;;;;;;;;;13.10;85.90;;;12.38;69.74;99316.28;5002652;28;19929;-84
2023/03/31 01:29:44;;;;;;;;;;;13.00;86.80;;;12.38;69.55;99326.16;5016525;28;20405;-81
2023/03/31 01:32:28;;;;;;;;;;;13.10;86.50;;;12.38;70.03;99318.94;5010106;28;20016;-85
2023/03/31 01:35:32;;;;;;;;;;;13.00;87.00;;;12.38;70.25;99313.59;5012906;28;20737;-81
2023/03/31 01:38:47;;;;;;;;;;;13.00;87.00;;;12.40;70.15;99308.03;5004977;28;20039;-81
2023/03/31 01:41:42;;;;;;;;;;;13.10;87.10;;;12.41;70.19;99303.47;5007912;28;20025;-85
2023/03/31 01:44:17;;;;;;;;;;;13.10;87.10;;;12.38;70.26;99286.84;5006109;28;19936;-83
2023/03/31 01:46:52;;;;;;;;;;;13.10;87.10;;;12.40;70.42;99294.66;5012817;28;20405;-81
2023/03/31 01:49:23;;;;;;;;;;;13.10;87.10;;;12.40;70.65;99291.97;5009326;28;20398;-81
2023/03/31 01:51:57;;;;;;;;;;;13.00;87.50;;;12.41;70.53;99290.09;5006998;28;19926;-81
2023/03/31 01:54:30;;;;;;;;;;;13.10;87.30;;;12.40;70.45;99280.47;5041088;28;19925;-83
2023/03/31 01:57:01;;;;;;;;;;;13.10;87.30;;;12.40;70.55;99275.94;5005328;28;19925;-81
2023/03/31 01:59:31;;;;;;;;;;;13.10;87.50;;;12.40;70.71;99273.25;5027430;28;20028;-81
2023/03/31 02:02:01;;;;;;;;;;;13.00;87.60;;;12.40;70.63;99272.44;5011246;28;19925;-81
2023/03/31 02:04:32;;;;;;;;;;;13.00;87.50;;;12.39;70.86;99266.28;5009017;28;20371;-81
2023/03/31 02:07:03;;;;;;;;;;;12.90;87.70;;;12.37;70.93;99258.50;5012197;28;19929;-80
2023/03/31 02:09:34;;;;;;;;;;;13.00;87.70;;;12.38;70.81;99249.41;5006190;28;19929;-82
2023/03/31 02:12:04;;;;;;;;;;;13.00;87.70;;;12.38;70.76;99243.28;5050259;28;19987;-81
2023/03/31 02:14:33;;;;;;;;;;;13.10;87.60;;;12.39;70.71;99239.53;5003680;28;19929;-82
2023/03/31 02:17:02;;;;;;;;;;;13.10;87.50;;;12.38;71.00;99237.94;5016249;28;19929;-81
2023/03/31 02:19:33;;;;;;;;;;;13.00;87.70;;;12.39;70.82;99226.16;5000117;28;20191;-81
2023/03/31 02:22:02;;;;;;;;;;;13.10;87.80;;;12.37;71.28;99226.44;5007008;28;19929;-82
2023/03/31 02:24:30;;;;;;;;;;;13.00;88.00;;;12.36;71.56;99224.81;5008982;28;19976;-82
2023/03/31 02:27:03;;;;;;;;;;;13.00;88.30;;;12.35;71.51;99212.53;5006853;28;20024;-81
2023/03/31 02:29:31;;;;;;;;;;;13.00;88.10;;;12.36;71.52;99202.63;5026354;28;19929;-82
2023/03/31 02:32:02;;;;;;;;;;;13.00;88.20;;;12.36;71.67;99200.75;5011361;28;19933;-81
2023/03/31 02:34:29;;;;;;;;;;;13.00;88.30;;;12.36;71.82;99194.59;5011081;28;19981;-81
2023/03/31 02:36:56;;;;;;;;;;;13.00;88.30;;;12.36;71.97;99194.59;5026933;28;19930;-82
2023/03/31 02:39:26;;;;;;;;;;;13.00;88.60;;;12.35;72.06;99185.78;5013009;28;19925;-81
2023/03/31 02:41:54;;;;;;;;;;;13.00;88.70;;;12.34;72.52;99181.47;5015983;28;19925;-80
2023/03/31 02:44:21;;;;;;;;;;;13.00;88.90;;;12.33;72.55;99169.16;5046515;28;20424;-80
2023/03/31 02:46:50;;;;;;;;;;;13.00;89.00;;;12.32;72.57;99154.19;5017061;28;19932;-82
2023/03/31 02:49:18;;;;;;;;;;;13.00;89.00;;;12.32;72.86;99140.81;5010794;28;19960;-81
2023/03/31 02:52:06;;;;;;;;;;;13.00;89.20;;;12.29;73.13;99140.53;5010997;28;19980;-82
2023/03/31 02:54:53;;;;;;;;;;;13.00;89.50;;;12.25;73.41;99131.41;5018601;28;19956;-83
2023/03/31 02:57:33;;;;;;;;;;;12.90;89.70;;;12.24;74.03;99127.13;5010794;28;19930;-84
2023/03/31 03:00:09;;;;;;;;;;;12.90;90.20;;;12.24;73.49;99111.88;5010975;28;19933;-82
2023/03/31 03:02:52;;;;;;;;;;;12.90;89.70;;;12.24;73.66;99114.56;5011082;28;19937;-83
2023/03/31 03:05:25;;;;;;;;;;;12.90;89.90;;;12.25;73.56;99100.16;5011789;28;20456;-82
2023/03/31 03:08:24;;;;;;;;;;;12.90;89.80;;;12.25;73.40;99092.13;5014418;28;20397;-82
2023/03/31 03:11:01;;;;;;;;;;;12.90;89.70;;;12.27;73.37;99081.19;5018799;28;19972;-82
2023/03/31 03:13:35;;;;;;;;;;;12.90;89.70;;;12.26;73.13;99085.72;5017919;28;20286;-82
2023/03/31 03:16:05;;;;;;;;;;;12.90;89.50;;;12.28;73.35;99083.59;5025826;28;20016;-84
2023/03/31 03:18:34;;;;;;;;;;;12.90;89.70;;;12.28;73.42;99072.09;5010094;28;19983;-82
2023/03/31 03:21:02;;;;;;;;;;;12.90;89.70;;;12.28;73.46;99053.38;5009772;28;20331;-80
2023/03/31 03:23:30;;;;;;;;;;;12.90;89.80;;;12.29;73.42;99047.75;5019649;28;20016;-84
2023/03/31 03:25:57;;;;;;;;;;;12.90;89.80;;;12.30;73.26;99032.56;5025674;28;19925;-80
2023/03/31 03:28:24;;;;;;;;;;;12.90;89.60;;;12.30;73.17;99052.06;5011731;28;20609;-81
2023/03/31 03:30:52;;;;;;;;;;;13.00;89.50;;;12.31;73.26;99051.00;5012005;28;19991;-82
2023/03/31 03:33:23;;;;;;;;;;;13.00;89.40;;;12.32;73.15;99043.78;5013047;28;20321;-81
2023/03/31 03:35:52;;;;;;;;;;;13.00;89.50;;;12.31;73.11;99034.16;5015163;28;20020;-81
2023/03/31 03:38:19;;;;;;;;;;;13.00;89.40;;;12.32;72.98;99014.38;5010830;28;19933;-84
2023/03/31 03:40:46;;;;;;;;;;;13.00;89.30;;;12.31;72.97;99015.44;5010738;28;19929;-82
2023/03/31 03:43:13;;;;;;;;;;;13.00;89.30;;;12.33;73.02;99026.69;5019618;28;20020;-82
2023/03/31 03:45:40;;;;;;;;;;;12.90;89.50;;;12.32;72.85;99015.19;5025695;28;19929;-80
2023/03/31 03:48:07;;;;;;;;;;;12.90;89.40;;;12.32;73.05;99006.34;5010765;28;19964;-81
2023/03/31 03:50:36;;;;;;;;;;;13.00;89.40;;;12.31;73.10;99002.09;5011283;28;19940;-82
2023/03/31 03:53:05;;;;;;;;;;;13.00;89.50;;;12.30;73.04;98993.25;5011247;28;19932;-81
2023/03/31 03:55:32;;;;;;;;;;;13.00;89.50;;;12.30;72.90;98984.44;5013104;28;20016;-80
2023/03/31 03:57:59;;;;;;;;;;;13.10;89.50;;;12.29;72.93;98998.84;5013617;28;19969;-81
2023/03/31 04:00:26;;;;;;;;;;;12.90;89.50;;;12.27;73.19;98991.09;5018323;28;20427;-81
2023/03/31 04:02:53;;;;;;;;;;;12.90;89.50;;;12.28;73.04;98987.34;5017156;28;20022;-82
2023/03/31 04:05:20;;;;;;;;;;;12.90;89.60;;;12.27;73.09;98985.75;5009317;28;19935;-81
2023/03/31 04:07:47;;;;;;;;;;;12.90;89.50;;;12.27;73.10;98952.88;5016184;28;19926;-86
2023/03/31 04:10:16;;;;;;;;;;;12.90;89.40;;;12.27;73.04;98966.22;5012111;28;20266;-80
2023/03/31 04:12:43;;;;;;;;;;;12.90;89.50;;;12.27;72.99;98942.19;5022422;28;19935;-81
2023/03/31 04:15:11;;;;;;;;;;;12.90;89.50;;;12.27;73.03;98937.63;5030428;28;19952;-84
2023/03/31 04:17:38;;;;;;;;;;;12.90;89.50;;;12.24;73.07;98930.13;5013926;28;19930;-78
2023/03/31 04:20:08;;;;;;;;;;;12.90;89.50;;;12.22;73.19;98924.25;5004861;28;20397;-79
2023/03/31 04:22:39;;;;;;;;;;;12.90;89.50;;;12.24;73.05;98932.78;5021511;28;19936;-80
2023/03/31 04:25:13;;;;;;;;;;;12.90;89.50;;;12.25;72.95;98926.41;5021858;28;19929;-80
2023/03/31 04:27:45;;;;;;;;;;;12.90;89.40;;;12.24;73.04;98932.78;5014463;28;19973;-79
2023/03/31 04:30:21;;;;;;;;;;;12.90;89.50;;;12.24;73.11;98945.34;5010611;28;19953;-77
2023/03/31 04:32:49;;;;;;;;;;;12.90;89.50;;;12.25;73.31;98936.25;5013257;28;19934;-80
2023/03/31 04:35:19;;;;;;;;;;;12.90;89.50;;;12.23;73.18;98915.16;5008138;28;19930;-77
2023/03/31 04:37:47;;;;;;;;;;;12.90;89.60;;;12.24;73.26;98906.06;4989957;28;19929;-78
2023/03/31 04:40:15;;;;;;;;;;;12.90;89.70;;;12.22;73.16;98892.16;4990821;28;19930;-83
2023/03/31 04:42:44;;;;;;;;;;;12.90;89.70;;;12.21;73.43;98901.25;4992418;28;19930;-80
2023/03/31 04:45:12;;;;;;;;;;;12.90;89.70;;;12.15;72.70;98880.94;4994621;28;19929;-79
2023/03/31 04:47:39;;;;;;;;;;;12.80;89.50;;;12.12;73.13;98884.09;4988258;28;20398;-81
2023/03/31 04:50:07;;;;;;;;;;;12.80;89.50;;;12.08;73.52;98875.00;4998893;28;19930;-80
2023/03/31 04:52:34;;;;;;;;;;;12.80;89.70;;;12.09;73.49;98874.72;5000543;28;19931;-80
2023/03/31 04:55:01;;;;;;;;;;;12.80;89.80;;;12.07;73.48;98860.84;5006064;28;20336;-80
2023/03/31 04:57:28;;;;;;;;;;;12.80;89.70;;;12.07;73.66;98858.16;4992088;28;20300;-81
2023/03/31 04:59:57;;;;;;;;;;;12.70;89.90;;;12.08;73.62;98856.28;4990176;28;19969;-79
2023/03/31 05:02:24;;;;;;;;;;;12.70;89.80;;;12.08;73.56;98851.75;4997474;28;19976;-78
2023/03/31 05:04:51;;;;;;;;;;;12.70;89.80;;;12.08;73.64;98843.72;4993825;28;20403;-79
2023/03/31 05:07:18;;;;;;;;;;;12.70;89.90;;;12.08;73.69;98842.94;4993186;28;19949;-81
2023/03/31 05:09:45;;;;;;;;;;;12.70;89.90;;;12.06;73.53;98823.69;4988504;28;20059;-79
2023/03/31 05:12:12;;;;;;;;;;;12.70;89.70;;;12.07;73.57;98822.63;4991616;28;19992;-78
2023/03/31 05:14:39;;;;;;;;;;;12.70;89.80;;;12.07;73.56;98810.06;5006088;28;19934;-81
2023/03/31 05:17:08;;;;;;;;;;;12.70;89.90;;;12.07;73.60;98804.72;4999000;28;20020;-79
2023/03/31 05:19:35;;;;;;;;;;;12.70;89.80;;;12.08;73.35;98789.47;4989947;28;19925;-79
2023/03/31 05:22:02;;;;;;;;;;;12.70;89.80;;;12.08;73.46;98786.81;4990974;28;19944;-80
2023/03/31 05:24:30;;;;;;;;;;;12.80;89.70;;;12.08;73.33;98784.94;4997762;28;19933;-79
2023/03/31 05:26:57;;;;;;;;;;;12.70;89.70;;;12.09;73.14;98773.19;4989715;28;19936;-79
2023/03/31 05:29:24;;;;;;;;;;;12.70;89.60;;;12.09;73.05;98769.72;5003142;28;20491;-78
2023/03/31 05:31:52;;;;;;;;;;;12.70;89.50;;;12.08;73.07;98766.25;4995513;28;20465;-80
2023/03/31 05:34:20;;;;;;;;;;;12.70;89.50;;;12.08;72.97;98758.22;5017959;23;20035;-78
2023/03/31 05:36:49;;;;;;;;;;;12.80;89.50;;;12.10;72.96;98755.28;5017848;28;19936;-81
2023/03/31 05:39:17;;;;;;;;;;;12.80;89.40;;;12.08;72.60;98752.88;5021451;28;19991;-81
2023/03/31 05:41:44;;;;;;;;;;;12.70;89.10;;;12.08;72.50;98752.88;5028599;28;19929;-80
2023/03/31 05:44:11;;;;;;;;;;;12.70;89.10;;;12.08;72.60;98744.06;5014438;28;19925;-80
2023/03/31 05:46:38;;;;;;;;;;;12.80;89.10;;;12.06;72.65;98738.19;5012680;28;20012;-79
2023/03/31 05:49:06;;;;;;;;;;;12.70;89.10;;;12.05;72.44;98732.03;5010242;28;19936;-81
2023/03/31 05:51:34;;;;;;;;;;;12.70;89.10;;;12.05;72.18;98728.53;5016311;28;19929;-80
2023/03/31 05:54:01;;;;;;;;;;;12.70;88.90;;;12.00;72.10;98718.66;5010584;28;19929;-79
2023/03/31 05:56:28;;;;;;;;;;;12.70;88.80;;;12.00;72.42;98721.31;5008737;28;19934;-79
2023/03/31 05:58:55;;;;;;;;;;;12.70;89.00;;;12.01;72.59;98714.13;5010045;28;19993;-80
2023/03/31 06:01:23;;;;;;;;;;;12.70;89.10;;;12.02;72.61;98711.19;5010343;28;19964;-80
2023/03/31 06:03:51;;;;;;;;;;;12.70;89.10;;;12.03;72.39;98712.78;5013768;28;20388;-79
2023/03/31 06:06:18;;;;;;;;;;;12.70;89.20;;;12.03;72.66;98712.78;5018551;28;19933;-80
2023/03/31 06:08:47;;;;;;;;;;;12.70;89.30;;;12.02;72.33;98697.03;5011111;28;20016;-77
2023/03/31 06:11:18;;;;;;;;;;;12.70;89.10;;;12.02;72.52;98710.38;5010096;28;19929;-80
2023/03/31 06:13:45;;;;;;;;;;;12.70;89.30;;;12.00;72.37;98702.59;5015294;28;20020;-80
2023/03/31 06:16:13;;;;;;;;;;;12.70;88.90;;;12.00;72.61;98697.28;5011433;28;20465;-81
2023/03/31 06:18:41;;;;;;;;;;;12.70;89.30;;;12.00;72.83;98691.94;5009329;28;19960;-79
2023/03/31 06:21:11;;;;;;;;;;;12.70;89.40;;;12.01;72.51;98690.88;5009241;28;20031;-81
2023/03/31 06:23:38;;;;;;;;;;;12.70;89.30;;;12.00;72.51;98688.44;5009207;28;20020;-79
2023/03/31 06:26:08;;;;;;;;;;;12.60;89.00;;;12.00;72.55;98691.13;5008704;28;19933;-79
2023/03/31 06:28:35;;;;;;;;;;;12.70;89.30;;;12.01;72.72;98695.44;5014095;28;19929;-79
2023/03/31 06:31:03;;;;;;;;;;;12.70;89.30;;;11.99;72.84;98697.53;5018007;28;20510;-77
2023/03/31 06:33:30;;;;;;;;;;;12.70;89.40;;;11.98;72.76;98694.06;5021631;28;20460;-80
2023/03/31 06:35:58;;;;;;;;;;;12.70;89.30;;;11.94;72.62;98684.19;5001866;28;20397;-78
2023/03/31 06:38:26;;;;;;;;;;;12.60;89.20;;;11.91;73.16;98687.38;5012277;28;20297;-80
2023/03/31 06:40:53;;;;;;;;;;;12.60;89.50;;;11.92;73.25;98694.34;5008930;28;19930;-80
2023/03/31 06:43:21;;;;;;;;;;;12.60;89.70;;;11.86;73.54;98682.84;5016066;28;19929;-79
2023/03/31 06:45:48;;;;;;;;;;;12.50;90.00;;;11.84;73.83;98682.28;5010600;28;19939;-79
2023/03/31 06:48:15;;;;;;;;;;;12.50;90.00;;;11.85;73.85;98686.56;5008803;28;19957;-80
2023/03/31 06:50:42;;;;;;;;;;;12.50;90.20;;;11.84;74.05;98680.41;5010798;28;20008;-80
2023/03/31 06:53:09;;;;;;;;;;;12.50;90.30;;;11.83;74.07;98680.69;5004999;28;19935;-79
2023/03/31 06:55:37;;;;;;;;;;;12.50;90.40;;;11.84;74.31;98676.94;5010937;28;19930;-81
2023/03/31 06:58:04;;;;;;;;;;;12.50;90.40;;;11.84;74.43;98683.09;5014494;28;19999;-82
2023/03/31 07:00:33;;;;;;;;;;;12.50;90.60;;;11.83;74.38;98676.13;5014686;28;19933;-79
2023/03/31 07:03:02;;;;;;;;;;;12.80;90.80;;;11.84;74.55;98677.75;5017551;28;20052;-81
2023/03/31 07:05:30;;;;;;;;;;;12.50;90.80;;;11.86;74.52;98672.16;5008488;28;19941;-81
2023/03/31 07:07:58;;;;;;;;;;;12.50;90.80;;;11.87;74.78;98675.63;5007822;28;20386;-80
2023/03/31 07:10:26;;;;;;;;;;;12.50;90.90;;;11.88;75.04;98679.91;5011928;28;19933;-79
2023/03/31 07:12:53;;;;;;;;;;;12.50;91.10;;;11.88;74.82;98669.22;5010670;28;20286;-81
2023/03/31 07:15:20;;;;;;;;;;;12.50;91.00;;;11.88;74.63;98677.22;4998589;28;19930;-79
2023/03/31 07:17:49;;;;;;;;;;;12.50;91.00;;;11.87;74.88;98673.75;5004861;28;19952;-79
2023/03/31 07:20:17;;;;;;;;;;;12.50;90.90;;;11.85;74.77;98674.00;5010254;28;20476;-81
2023/03/31 07:22:46;;;;;;;;;;;12.50;90.90;;;11.87;74.83;98664.94;5002852;28;19948;-81
2023/03/31 07:25:14;;;;;;;;;;;12.50;90.90;;;11.85;74.96;98665.19;5020154;28;19929;-82
2023/03/31 07:27:42;;;;;;;;;;;12.50;91.00;;;11.82;74.74;98653.16;5005809;28;19984;-81
2023/03/31 07:30:11;;;;;;;;;;;12.50;91.00;;;11.80;74.71;98655.25;5009313;28;19972;-80
2023/03/31 07:32:40;;;;;;;;;;;12.50;91.00;;;11.80;74.88;98649.13;5008383;28;20000;-81
2023/03/31 07:35:10;;;;;;;;;;;12.50;90.90;;;11.80;75.10;98647.25;5010076;28;19940;-81
2023/03/31 07:37:37;;;;;;;;;;;12.50;91.20;;;11.80;75.36;98643.78;5009370;28;19925;-81
2023/03/31 07:40:05;;;;;;;;;;;12.50;91.30;;;11.82;75.21;98649.69;5012571;28;19969;-80
2023/03/31 07:42:32;;;;;;;;;;;12.50;91.30;;;11.81;75.12;98640.84;5017412;28;20040;-81
2023/03/31 07:45:00;;;;;;;;;;;12.50;91.10;;;11.84;75.34;98648.34;5011271;28;20020;-80
2023/03/31 07:47:27;;;;;;;;;;;12.50;91.30;;;11.85;75.33;98641.94;5017693;28;19929;-80
2023/03/31 07:49:54;;;;;;;;;;;12.50;91.30;;;11.83;75.20;98643.28;5009862;28;20365;-80
2023/03/31 07:52:23;;;;;;;;;;;12.50;91.10;;;11.85;75.01;98635.81;5015302;28;19983;-78
2023/03/31 07:54:50;;;;;;;;;;;12.50;91.00;;;11.85;75.05;98639.28;5014883;28;20019;-79
2023/03/31 07:57:18;;;;;;;;;;;12.50;91.10;;;11.88;75.45;98645.97;5012289;28;20397;-79
2023/03/31 07:59:45;;;;;;;;;;;12.50;91.40;;;11.90;75.55;98640.34;4991647;28;19936;-80
2023/03/31 08:02:15;;;;;;;;;;;12.50;91.50;;;11.90;75.49;98643.03;5028644;28;19956;-79
2023/03/31 08:04:42;;;;;;;;;;;12.60;91.60;;;11.91;75.99;98633.94;5019688;28;19929;-78
2023/03/31 08:07:10;;;;;;;;;;;12.60;91.70;;;11.92;75.76;98639.03;5010858;28;20024;-79
2023/03/31 08:09:39;;;;;;;;;;;12.60;91.60;;;11.95;75.80;98629.66;5014095;28;20310;-79
2023/03/31 08:12:06;;;;;;;;;;;12.60;91.90;;;11.96;75.71;98624.09;5010983;28;19933;-79
2023/03/31 08:14:33;;;;;;;;;;;12.60;91.60;;;11.97;75.65;98628.34;5008880;28;19929;-82
2023/03/31 08:17:01;;;;;;;;;;;12.70;91.50;;;12.00;75.78;98635.03;5009179;28;19937;-79
2023/03/31 08:19:28;;;;;;;;;;;12.70;91.60;;;12.00;75.86;98641.16;5036082;28;19968;-79
2023/03/31 08:21:55;;;;;;;;;;;12.70;91.70;;;12.00;75.64;98624.34;5012946;28;19933;-80
2023/03/31 08:24:22;;;;;;;;;;;12.70;91.40;;;12.01;75.60;98623.28;5014771;28;20018;-80
2023/03/31 08:26:50;;;;;;;;;;;12.70;91.40;;;12.02;75.59;98615.00;5012110;28;19936;-80
2023/03/31 08:29:17;;;;;;;;;;;12.70;91.40;;;12.04;75.53;98620.06;5003335;28;20020;-80
2023/03/31 08:31:44;;;;;;;;;;;12.70;91.30;;;12.04;75.47;98614.72;5007741;28;19936;-81
2023/03/31 08:34:11;;;;;;;;;;;12.70;91.40;;;12.04;75.73;98618.19;5009377;28;19937;-81
2023/03/31 08:36:38;;;;;;;;;;;12.70;91.40;;;12.04;75.57;98620.88;5005003;28;19972;-81
2023/03/31 08:39:06;;;;;;;;;;;12.70;91.40;;;12.04;75.62;98623.53;5008205;28;19929;-79
2023/03/31 08:41:45;;;;;;;;;;;12.70;91.40;;;12.04;75.54;98617.41;5014177;28;19979;-80
2023/03/31 08:44:16;;;;;;;;;;;12.70;91.30;;;12.05;75.59;98613.66;5012023;28;20016;-78
2023/03/31 08:46:44;;;;;;;;;;;12.70;91.30;;;12.04;75.42;98614.72;5008099;28;19980;-82
2023/03/31 08:49:15;;;;;;;;;;;12.70;91.40;;;12.05;75.68;98619.00;5008162;28;19929;-77
2023/03/31 08:51:46;;;;;;;;;;;12.70;91.60;;;12.05;75.92;98619.00;5001467;28;19983;-85
2023/03/31 08:54:17;;;;;;;;;;;12.70;91.80;;;12.04;76.00;98602.16;5014670;28;19952;-79
2023/03/31 08:56:47;;;;;;;;;;;12.70;91.60;;;12.04;75.76;98596.81;5007599;28;20036;-80
2023/03/31 08:59:25;;;;;;;;;;;12.70;91.60;;;12.05;76.17;98595.78;5016706;28;19929;-80
2023/03/31 09:01:57;;;;;;;;;;;12.70;91.80;;;12.00;76.02;98595.75;5016909;28;19936;-80
2023/03/31 09:04:42;;;;;;;;;;;12.70;91.80;;;12.01;76.14;98586.69;5009974;28;19953;-80
2023/03/31 09:07:15;;;;;;;;;;;12.70;91.90;;;12.05;76.46;98592.28;5001342;28;20015;-81
2023/03/31 09:09:49;;;;;;;;;;;12.70;92.00;;;12.07;76.96;98580.25;5008714;28;20029;-80
2023/03/31 09:12:19;;;;;;;;;;;12.70;92.40;;;12.09;77.62;98588.00;5012329;28;20019;-80
2023/03/31 09:14:50;;;;;;;;;;;12.80;92.90;;;12.10;77.87;98584.25;5018646;28;20012;-82
2023/03/31 09:17:22;;;;;;;;;;;12.80;93.10;;;12.11;78.01;98580.53;5010737;28;20020;-79
2023/03/31 09:19:52;;;;;;;;;;;12.80;93.10;;;12.15;77.97;98586.13;5009651;28;19933;-80
2023/03/31 09:22:22;;;;;;;;;;;12.80;93.00;;;12.20;78.70;98572.75;5010245;28;20024;-80
2023/03/31 09:24:55;;;;;;;;;;;12.90;93.90;;;12.22;78.99;98571.44;5010579;28;20025;-81
2023/03/31 09:27:25;;;;;;;;;;;12.90;93.80;;;12.23;78.62;98574.91;5009805;28;19968;-79
2023/03/31 09:29:56;;;;;;;;;;;12.90;93.40;;;12.28;78.30;98569.56;5006257;28;19930;-80
2023/03/31 09:32:25;;;;;;;;;;;12.90;93.20;;;12.32;78.17;98568.75;5015989;28;20012;-79
2023/03/31 09:34:53;;;;;;;;;;;13.00;93.40;;;12.36;79.37;98561.81;5009251;28;19932;-80
2023/03/31 09:37:20;;;;;;;;;;;13.10;94.00;;;12.40;79.28;98555.94;4998492;28;19957;-80
2023/03/31 09:39:48;;;;;;;;;;;13.10;93.90;;;12.43;78.85;98553.50;4993476;28;19934;-80
2023/03/31 09:42:15;;;;;;;;;;;13.10;93.50;;;12.45;78.76;98548.69;5008124;28;19944;-79
2023/03/31 09:44:44;;;;;;;;;;;13.20;93.40;;;12.50;78.17;98550.56;5011690;28;20321;-80
2023/03/31 09:47:16;;;;;;;;;;;13.20;93.00;;;12.51;78.07;98555.63;5009381;28;19935;-79
2023/03/31 09:49:45;;;;;;;;;;;13.20;92.90;;;12.53;78.13;98552.66;5019166;28;19961;-79
2023/03/31 09:52:18;;;;;;;;;;;13.20;92.90;;;12.54;77.98;98541.72;5008662;28;20409;-80
2023/03/31 09:54:48;;;;;;;;;;;13.30;92.80;;;12.56;78.12;98534.22;5013633;28;19929;-79
2023/03/31 09:57:22;;;;;;;;;;;13.30;93.20;;;12.58;78.56;98533.94;5007338;28;19936;-80
2023/03/31 09:59:51;;;;;;;;;;;13.30;93.40;;;12.58;78.20;98521.38;5007085;28;19935;-81
2023/03/31 10:02:35;;;;;;;;;;;13.30;93.20;;;12.62;78.48;98513.59;5009173;28;19930;-80
2023/03/31 10:05:03;;;;;;;;;;;13.30;93.50;;;12.66;78.80;98505.84;5009494;28;19925;-79
2023/03/31 10:07:30;;;;;;;;;;;13.40;93.50;;;12.67;78.17;98497.53;5008573;28;19933;-82
2023/03/31 10:09:57;;;;;;;;;;;13.40;93.00;;;12.72;77.70;98500.19;5007245;28;19929;-80
2023/03/31 10:12:28;;;;;;;;;;;13.40;92.80;;;12.77;80.19;98491.34;5013424;28;20393;-80
2023/03/31 10:15:02;;;;;;;;;;;13.50;94.80;;;12.80;80.76;98486.25;5008886;28;19939;-81
2023/03/31 10:17:33;;;;;;;;;;;13.50;94.90;;;12.84;81.61;98481.97;5008336;28;19948;-80
2023/03/31 10:20:17;;;;;;;;;;;13.60;95.60;;;12.89;82.42;98489.97;5011850;28;19981;-83
2023/03/31 10:22:46;;;;;;;;;;;13.60;96.20;;;12.93;81.75;98487.53;5015886;28;20011;-80
2023/03/31 10:25:16;;;;;;;;;;;13.70;95.40;;;12.89;80.74;98514.06;5025050;28;19937;-80
2023/03/31 10:27:45;;;;;;;;;;;13.70;94.80;;;12.82;80.65;98532.25;5008931;28;19969;-86
2023/03/31 10:30:17;;;;;;;;;;;13.60;94.40;;;12.65;78.01;98521.09;5008288;28;19954;-80
2023/03/31 10:32:46;;;;;;;;;;;13.40;92.80;;;12.55;76.56;98510.44;5019215;28;19957;-80
2023/03/31 10:35:22;;;;;;;;;;;13.30;91.50;;;12.49;76.16;98501.63;5002253;28;19940;-79
2023/03/31 10:37:51;;;;;;;;;;;13.20;91.40;;;12.41;76.05;98502.19;5008742;28;19933;-79
2023/03/31 10:40:20;;;;;;;;;;;13.10;91.50;;;12.37;76.55;98504.59;5006709;28;20461;-81
2023/03/31 10:43:00;;;;;;;;;;;13.10;91.80;;;12.36;77.35;98500.31;5011221;28;20101;-82
2023/03/31 10:45:29;;;;;;;;;;;13.10;92.70;;;12.40;78.01;98486.41;5017469;28;21860;-80
2023/03/31 10:47:59;;;;;;;;;;;13.10;93.10;;;12.43;79.00;98480.50;5013130;28;19929;-80
2023/03/31 10:50:28;;;;;;;;;;;13.10;94.00;;;12.45;79.54;98487.19;5011804;28;20017;-79
2023/03/31 10:53:02;;;;;;;;;;;13.10;94.20;;;12.45;80.55;98473.03;5011596;28;19926;-79
2023/03/31 10:55:35;;;;;;;;;;;13.10;95.20;;;12.50;81.01;98465.00;5012309;28;19929;-80
2023/03/31 10:58:11;;;;;;;;;;;13.20;95.20;;;12.60;83.08;98459.59;5009467;28;19933;-81
2023/03/31 11:00:45;;;;;;;;;;;13.30;97.30;;;12.67;83.81;98457.44;5009307;28;20771;-81
2023/03/31 11:03:42;;;;;;;;;;;13.40;97.20;;;12.76;84.44;98457.66;5016003;28;19987;-81
2023/03/31 11:06:15;;;;;;;;;;;13.50;97.70;;;12.84;84.91;98449.88;5012270;28;20015;-78
2023/03/31 11:08:50;;;;;;;;;;;13.50;97.90;;;12.90;84.16;98445.28;5021541;28;19940;-81
2023/03/31 11:11:32;;;;;;;;;;;13.60;97.30;;;12.93;82.60;98476.03;5014844;28;20355;-78
2023/03/31 11:14:06;;;;;;;;;;;13.60;95.70;;;12.82;78.37;98483.31;5024489;28;19929;-79
2023/03/31 11:16:39;;;;;;;;;;;13.50;92.80;;;12.68;76.83;98485.75;5016351;28;20600;-80
2023/03/31 11:19:19;;;;;;;;;;;13.40;92.00;;;12.58;76.78;98493.81;5010023;28;19940;-79
2023/03/31 11:21:55;;;;;;;;;;;13.30;92.10;;;12.54;78.26;98498.94;5006457;28;20487;-79
2023/03/31 11:24:33;;;;;;;;;;;13.30;93.00;;;12.49;77.66;98509.66;5017229;28;19933;-80
2023/03/31 11:27:06;;;;;;;;;;;13.10;92.50;;;12.45;78.29;98492.56;5014143;28;20628;-77
2023/03/31 11:29:36;;;;;;;;;;;13.20;93.20;;;12.43;78.62;98500.03;5003813;28;19929;-78
2023/03/31 11:32:21;;;;;;;;;;;13.20;93.20;;;12.43;78.34;98505.38;5005153;28;19930;-77